sensor_id;sensor_type;location;lat;lon;timestamp;P1;durP1;ratioP1;P2;durP2;ratioP2
41897;SDS011;27576;53.366;-1.498;2022-10-17T00:00:46;5.05;;;4.03;;
41897;SDS011;27576;53.366;-1.498;2022-10-17T00:03:12;8.50;;;3.95;;
41897;SDS011;27576;53.366;-1.498;2022-10-17T00:05:42;5.63;;;3.85;;
41897;SDS011;27576;53.366;-1.498;2022-10-17T00:08:10;8.00;;;4.50;;
41897;SDS011;27576;53.366;-1.498;2022-10-17T00:10:36;4.85;;;4.03;;
41897;SDS011;27576;53.366;-1.498;2022-10-17T00:13:03;7.93;;;4.90;;
41897;SDS011;27576;53.366;-1.498;2022-10-17T00:15:28;5.35;;;4.28;;
41897;SDS011;27576;53.366;-1.498;2022-10-17T00:17:54;10.50;;;4.80;;
41897;SDS011;27576;53.366;-1.498;2022-10-17T00:20:20;6.18;;;4.38;;
41897;SDS011;27576;53.366;-1.498;2022-10-17T00:22:45;7.65;;;4.40;;
41897;SDS011;27576;53.366;-1.498;2022-10-17T00:25:11;8.38;;;4.68;;
41897;SDS011;27576;53.366;-1.498;2022-10-17T00:27:37;6.40;;;4.45;;
41897;SDS011;27576;53.366;-1.498;2022-10-17T00:30:04;4.90;;;4.10;;
41897;SDS011;27576;53.366;-1.498;2022-10-17T00:32:31;7.05;;;5.10;;
41897;SDS011;27576;53.366;-1.498;2022-10-17T00:34:57;7.07;;;4.00;;
41897;SDS011;27576;53.366;-1.498;2022-10-17T00:37:23;5.55;;;4.55;;
41897;SDS011;27576;53.366;-1.498;2022-10-17T00:39:48;5.97;;;4.57;;
41897;SDS011;27576;53.366;-1.498;2022-10-17T00:42:14;6.50;;;4.63;;
41897;SDS011;27576;53.366;-1.498;2022-10-17T00:47:06;5.70;;;4.30;;
41897;SDS011;27576;53.366;-1.498;2022-10-17T00:49:35;5.38;;;3.60;;
41897;SDS011;27576;53.366;-1.498;2022-10-17T00:52:03;4.35;;;3.55;;
41897;SDS011;27576;53.366;-1.498;2022-10-17T00:54:33;7.05;;;3.53;;
41897;SDS011;27576;53.366;-1.498;2022-10-17T00:57:01;4.88;;;3.63;;
41897;SDS011;27576;53.366;-1.498;2022-10-17T00:59:27;4.88;;;3.70;;
41897;SDS011;27576;53.366;-1.498;2022-10-17T01:01:59;5.32;;;4.45;;
41897;SDS011;27576;53.366;-1.498;2022-10-17T01:04:28;5.82;;;3.67;;
41897;SDS011;27576;53.366;-1.498;2022-10-17T01:06:53;5.35;;;4.50;;
41897;SDS011;27576;53.366;-1.498;2022-10-17T01:09:18;4.75;;;3.75;;
41897;SDS011;27576;53.366;-1.498;2022-10-17T01:11:47;5.57;;;3.20;;
41897;SDS011;27576;53.366;-1.498;2022-10-17T01:14:49;5.20;;;3.08;;
41897;SDS011;27576;53.366;-1.498;2022-10-17T01:18:06;5.95;;;3.10;;
41897;SDS011;27576;53.366;-1.498;2022-10-17T01:25:53;5.90;;;2.35;;
41897;SDS011;27576;53.366;-1.498;2022-10-17T01:31:12;5.13;;;1.90;;
41897;SDS011;27576;53.366;-1.498;2022-10-17T01:42:00;6.22;;;1.80;;
41897;SDS011;27576;53.366;-1.498;2022-10-17T01:44:40;4.65;;;1.98;;
41897;SDS011;27576;53.366;-1.498;2022-10-17T01:47:12;4.63;;;1.75;;
41897;SDS011;27576;53.366;-1.498;2022-10-17T01:49:44;4.43;;;1.70;;
41897;SDS011;27576;53.366;-1.498;2022-10-17T01:55:22;7.30;;;1.92;;
41897;SDS011;27576;53.366;-1.498;2022-10-17T01:57:53;7.50;;;2.03;;
41897;SDS011;27576;53.366;-1.498;2022-10-17T02:00:23;7.10;;;2.05;;
41897;SDS011;27576;53.366;-1.498;2022-10-17T02:02:52;7.15;;;2.10;;
41897;SDS011;27576;53.366;-1.498;2022-10-17T02:05:24;6.07;;;2.28;;
41897;SDS011;27576;53.366;-1.498;2022-10-17T02:07:53;4.30;;;1.80;;
41897;SDS011;27576;53.366;-1.498;2022-10-17T02:10:20;7.20;;;2.13;;
41897;SDS011;27576;53.366;-1.498;2022-10-17T02:13:11;5.93;;;2.20;;
41897;SDS011;27576;53.366;-1.498;2022-10-17T02:15:49;6.38;;;2.00;;
41897;SDS011;27576;53.366;-1.498;2022-10-17T02:18:24;5.18;;;1.90;;
41897;SDS011;27576;53.366;-1.498;2022-10-17T02:21:14;4.13;;;1.42;;
41897;SDS011;27576;53.366;-1.498;2022-10-17T02:23:52;2.55;;;1.88;;
41897;SDS011;27576;53.366;-1.498;2022-10-17T02:26:31;6.10;;;2.03;;
41897;SDS011;27576;53.366;-1.498;2022-10-17T02:29:05;6.50;;;1.80;;
41897;SDS011;27576;53.366;-1.498;2022-10-17T02:34:37;5.93;;;1.50;;
41897;SDS011;27576;53.366;-1.498;2022-10-17T02:37:01;4.35;;;1.98;;
41897;SDS011;27576;53.366;-1.498;2022-10-17T02:39:29;8.90;;;2.03;;
41897;SDS011;27576;53.366;-1.498;2022-10-17T02:41:57;5.75;;;2.00;;
41897;SDS011;27576;53.366;-1.498;2022-10-17T02:44:28;6.00;;;1.90;;
41897;SDS011;27576;53.366;-1.498;2022-10-17T02:47:04;5.88;;;2.00;;
41897;SDS011;27576;53.366;-1.498;2022-10-17T02:49:38;4.07;;;1.98;;
41897;SDS011;27576;53.366;-1.498;2022-10-17T02:52:14;5.57;;;2.10;;
41897;SDS011;27576;53.366;-1.498;2022-10-17T02:57:31;9.38;;;1.83;;
41897;SDS011;27576;53.366;-1.498;2022-10-17T03:00:02;10.07;;;2.20;;
41897;SDS011;27576;53.366;-1.498;2022-10-17T03:02:37;3.60;;;1.50;;
41897;SDS011;27576;53.366;-1.498;2022-10-17T03:05:08;5.72;;;1.58;;
41897;SDS011;27576;53.366;-1.498;2022-10-17T03:07:34;5.55;;;1.40;;
41897;SDS011;27576;53.366;-1.498;2022-10-17T03:09:59;3.20;;;1.70;;
41897;SDS011;27576;53.366;-1.498;2022-10-17T03:12:25;2.53;;;1.30;;
41897;SDS011;27576;53.366;-1.498;2022-10-17T03:14:50;2.70;;;1.02;;
41897;SDS011;27576;53.366;-1.498;2022-10-17T03:17:16;3.88;;;1.35;;
41897;SDS011;27576;53.366;-1.498;2022-10-17T03:19:41;5.57;;;1.52;;
41897;SDS011;27576;53.366;-1.498;2022-10-17T03:22:06;5.30;;;1.70;;
41897;SDS011;27576;53.366;-1.498;2022-10-17T03:24:32;3.17;;;1.58;;
41897;SDS011;27576;53.366;-1.498;2022-10-17T03:26:57;7.00;;;1.70;;
41897;SDS011;27576;53.366;-1.498;2022-10-17T03:29:22;4.03;;;1.60;;
41897;SDS011;27576;53.366;-1.498;2022-10-17T03:31:48;4.65;;;1.38;;
41897;SDS011;27576;53.366;-1.498;2022-10-17T03:34:13;4.72;;;1.48;;
41897;SDS011;27576;53.366;-1.498;2022-10-17T03:36:41;3.22;;;1.45;;
41897;SDS011;27576;53.366;-1.498;2022-10-17T03:39:07;8.70;;;1.75;;
41897;SDS011;27576;53.366;-1.498;2022-10-17T03:41:32;5.45;;;1.70;;
41897;SDS011;27576;53.366;-1.498;2022-10-17T03:43:59;6.13;;;1.90;;
41897;SDS011;27576;53.366;-1.498;2022-10-17T03:46:24;6.15;;;1.55;;
41897;SDS011;27576;53.366;-1.498;2022-10-17T03:48:50;5.13;;;1.98;;
41897;SDS011;27576;53.366;-1.498;2022-10-17T03:51:15;9.25;;;2.38;;
41897;SDS011;27576;53.366;-1.498;2022-10-17T03:53:41;4.97;;;1.98;;
41897;SDS011;27576;53.366;-1.498;2022-10-17T03:56:17;10.43;;;2.47;;
41897;SDS011;27576;53.366;-1.498;2022-10-17T03:58:43;4.03;;;1.83;;
41897;SDS011;27576;53.366;-1.498;2022-10-17T04:01:10;7.05;;;2.08;;
41897;SDS011;27576;53.366;-1.498;2022-10-17T04:03:37;6.72;;;2.28;;
41897;SDS011;27576;53.366;-1.498;2022-10-17T04:06:03;7.18;;;1.73;;
41897;SDS011;27576;53.366;-1.498;2022-10-17T04:08:29;7.45;;;1.90;;
41897;SDS011;27576;53.366;-1.498;2022-10-17T04:10:58;3.92;;;1.45;;
41897;SDS011;27576;53.366;-1.498;2022-10-17T04:13:25;7.85;;;1.70;;
41897;SDS011;27576;53.366;-1.498;2022-10-17T04:15:57;6.78;;;2.05;;
41897;SDS011;27576;53.366;-1.498;2022-10-17T04:18:28;8.02;;;2.05;;
41897;SDS011;27576;53.366;-1.498;2022-10-17T04:20:54;5.05;;;1.88;;
41897;SDS011;27576;53.366;-1.498;2022-10-17T04:23:20;6.43;;;1.95;;
41897;SDS011;27576;53.366;-1.498;2022-10-17T04:25:46;10.90;;;2.28;;
41897;SDS011;27576;53.366;-1.498;2022-10-17T04:28:11;6.85;;;1.92;;
41897;SDS011;27576;53.366;-1.498;2022-10-17T04:30:36;9.38;;;2.17;;
41897;SDS011;27576;53.366;-1.498;2022-10-17T04:33:02;8.30;;;2.15;;
41897;SDS011;27576;53.366;-1.498;2022-10-17T04:35:27;7.78;;;2.10;;
41897;SDS011;27576;53.366;-1.498;2022-10-17T04:37:53;8.60;;;1.98;;
41897;SDS011;27576;53.366;-1.498;2022-10-17T04:40:18;6.50;;;2.08;;
41897;SDS011;27576;53.366;-1.498;2022-10-17T04:42:44;11.18;;;2.25;;
41897;SDS011;27576;53.366;-1.498;2022-10-17T04:45:10;8.13;;;2.15;;
41897;SDS011;27576;53.366;-1.498;2022-10-17T04:47:35;7.47;;;1.60;;
41897;SDS011;27576;53.366;-1.498;2022-10-17T04:50:01;4.72;;;1.60;;
41897;SDS011;27576;53.366;-1.498;2022-10-17T04:52:26;8.80;;;2.13;;
41897;SDS011;27576;53.366;-1.498;2022-10-17T04:54:51;9.00;;;2.00;;
41897;SDS011;27576;53.366;-1.498;2022-10-17T04:57:17;8.48;;;2.00;;
41897;SDS011;27576;53.366;-1.498;2022-10-17T04:59:43;8.50;;;2.53;;
41897;SDS011;27576;53.366;-1.498;2022-10-17T05:02:09;7.70;;;1.70;;
41897;SDS011;27576;53.366;-1.498;2022-10-17T05:04:34;8.73;;;1.80;;
41897;SDS011;27576;53.366;-1.498;2022-10-17T05:07:00;8.15;;;1.70;;
41897;SDS011;27576;53.366;-1.498;2022-10-17T05:09:26;5.68;;;1.42;;
41897;SDS011;27576;53.366;-1.498;2022-10-17T05:11:51;4.70;;;1.38;;
41897;SDS011;27576;53.366;-1.498;2022-10-17T05:14:16;8.00;;;1.95;;
41897;SDS011;27576;53.366;-1.498;2022-10-17T05:16:42;8.07;;;1.58;;
41897;SDS011;27576;53.366;-1.498;2022-10-17T05:19:07;7.57;;;1.65;;
41897;SDS011;27576;53.366;-1.498;2022-10-17T05:21:33;5.85;;;1.85;;
41897;SDS011;27576;53.366;-1.498;2022-10-17T05:23:59;8.05;;;2.33;;
41897;SDS011;27576;53.366;-1.498;2022-10-17T05:26:24;14.57;;;2.85;;
41897;SDS011;27576;53.366;-1.498;2022-10-17T05:28:50;6.97;;;2.08;;
41897;SDS011;27576;53.366;-1.498;2022-10-17T05:31:16;9.52;;;2.00;;
41897;SDS011;27576;53.366;-1.498;2022-10-17T05:33:42;11.00;;;2.13;;
41897;SDS011;27576;53.366;-1.498;2022-10-17T05:36:08;6.15;;;1.63;;
41897;SDS011;27576;53.366;-1.498;2022-10-17T05:38:34;7.82;;;2.15;;
41897;SDS011;27576;53.366;-1.498;2022-10-17T05:41:00;6.05;;;2.03;;
41897;SDS011;27576;53.366;-1.498;2022-10-17T05:43:27;8.90;;;2.20;;
41897;SDS011;27576;53.366;-1.498;2022-10-17T05:45:54;7.72;;;2.08;;
41897;SDS011;27576;53.366;-1.498;2022-10-17T05:48:20;10.77;;;2.83;;
41897;SDS011;27576;53.366;-1.498;2022-10-17T05:50:46;6.50;;;1.88;;
41897;SDS011;27576;53.366;-1.498;2022-10-17T05:53:12;6.20;;;1.95;;
41897;SDS011;27576;53.366;-1.498;2022-10-17T05:55:38;8.93;;;2.28;;
41897;SDS011;27576;53.366;-1.498;2022-10-17T05:58:03;5.18;;;1.98;;
41897;SDS011;27576;53.366;-1.498;2022-10-17T06:00:29;10.48;;;2.05;;
41897;SDS011;27576;53.366;-1.498;2022-10-17T06:02:54;10.60;;;2.50;;
41897;SDS011;27576;53.366;-1.498;2022-10-17T06:05:19;13.05;;;3.92;;
41897;SDS011;27576;53.366;-1.498;2022-10-17T06:07:45;12.02;;;2.05;;
41897;SDS011;27576;53.366;-1.498;2022-10-17T06:10:13;9.38;;;2.28;;
41897;SDS011;27576;53.366;-1.498;2022-10-17T06:12:40;9.70;;;2.50;;
41897;SDS011;27576;53.366;-1.498;2022-10-17T06:15:07;7.20;;;1.90;;
41897;SDS011;27576;53.366;-1.498;2022-10-17T06:17:33;8.80;;;2.05;;
41897;SDS011;27576;53.366;-1.498;2022-10-17T06:19:58;10.02;;;2.40;;
41897;SDS011;27576;53.366;-1.498;2022-10-17T06:22:24;9.77;;;2.90;;
41897;SDS011;27576;53.366;-1.498;2022-10-17T06:24:49;13.52;;;2.10;;
41897;SDS011;27576;53.366;-1.498;2022-10-17T06:27:16;13.13;;;2.35;;
41897;SDS011;27576;53.366;-1.498;2022-10-17T06:29:41;13.48;;;2.85;;
41897;SDS011;27576;53.366;-1.498;2022-10-17T06:32:07;10.15;;;2.53;;
41897;SDS011;27576;53.366;-1.498;2022-10-17T06:34:32;12.93;;;2.58;;
41897;SDS011;27576;53.366;-1.498;2022-10-17T06:36:58;10.40;;;2.58;;
41897;SDS011;27576;53.366;-1.498;2022-10-17T06:39:23;10.57;;;3.10;;
41897;SDS011;27576;53.366;-1.498;2022-10-17T06:41:50;12.88;;;2.80;;
41897;SDS011;27576;53.366;-1.498;2022-10-17T06:44:16;15.98;;;3.05;;
41897;SDS011;27576;53.366;-1.498;2022-10-17T06:46:41;10.48;;;2.40;;
41897;SDS011;27576;53.366;-1.498;2022-10-17T06:49:08;16.60;;;2.70;;
41897;SDS011;27576;53.366;-1.498;2022-10-17T06:51:34;12.80;;;2.20;;
41897;SDS011;27576;53.366;-1.498;2022-10-17T06:54:01;9.93;;;2.45;;
41897;SDS011;27576;53.366;-1.498;2022-10-17T06:56:26;13.27;;;2.35;;
41897;SDS011;27576;53.366;-1.498;2022-10-17T06:58:52;10.52;;;2.22;;
41897;SDS011;27576;53.366;-1.498;2022-10-17T07:01:18;9.65;;;2.13;;
41897;SDS011;27576;53.366;-1.498;2022-10-17T07:03:46;13.23;;;2.17;;
41897;SDS011;27576;53.366;-1.498;2022-10-17T07:06:12;12.52;;;2.97;;
41897;SDS011;27576;53.366;-1.498;2022-10-17T07:08:41;14.82;;;2.72;;
41897;SDS011;27576;53.366;-1.498;2022-10-17T07:11:08;18.67;;;2.75;;
41897;SDS011;27576;53.366;-1.498;2022-10-17T07:13:37;12.38;;;2.45;;
41897;SDS011;27576;53.366;-1.498;2022-10-17T07:16:03;10.50;;;2.60;;
41897;SDS011;27576;53.366;-1.498;2022-10-17T07:18:29;9.02;;;2.10;;
41897;SDS011;27576;53.366;-1.498;2022-10-17T07:20:54;16.30;;;2.67;;
41897;SDS011;27576;53.366;-1.498;2022-10-17T07:23:20;12.40;;;3.10;;
41897;SDS011;27576;53.366;-1.498;2022-10-17T07:25:46;15.70;;;3.38;;
41897;SDS011;27576;53.366;-1.498;2022-10-17T07:28:11;10.75;;;2.78;;
41897;SDS011;27576;53.366;-1.498;2022-10-17T07:30:38;9.50;;;2.70;;
41897;SDS011;27576;53.366;-1.498;2022-10-17T07:33:03;12.20;;;2.70;;
41897;SDS011;27576;53.366;-1.498;2022-10-17T07:35:29;16.42;;;2.55;;
41897;SDS011;27576;53.366;-1.498;2022-10-17T07:37:54;11.05;;;2.65;;
41897;SDS011;27576;53.366;-1.498;2022-10-17T07:40:19;11.90;;;2.33;;
41897;SDS011;27576;53.366;-1.498;2022-10-17T07:42:45;9.48;;;2.55;;
41897;SDS011;27576;53.366;-1.498;2022-10-17T07:45:10;12.95;;;2.22;;
41897;SDS011;27576;53.366;-1.498;2022-10-17T07:47:35;12.95;;;2.67;;
41897;SDS011;27576;53.366;-1.498;2022-10-17T07:50:02;10.98;;;2.38;;
41897;SDS011;27576;53.366;-1.498;2022-10-17T07:52:28;16.40;;;3.20;;
41897;SDS011;27576;53.366;-1.498;2022-10-17T07:54:53;15.73;;;3.03;;
41897;SDS011;27576;53.366;-1.498;2022-10-17T07:57:18;17.05;;;3.60;;
41897;SDS011;27576;53.366;-1.498;2022-10-17T07:59:44;19.85;;;4.32;;
41897;SDS011;27576;53.366;-1.498;2022-10-17T08:02:12;23.13;;;3.78;;
41897;SDS011;27576;53.366;-1.498;2022-10-17T08:04:45;17.25;;;3.90;;
41897;SDS011;27576;53.366;-1.498;2022-10-17T08:07:10;16.23;;;2.80;;
41897;SDS011;27576;53.366;-1.498;2022-10-17T08:09:36;11.95;;;2.85;;
41897;SDS011;27576;53.366;-1.498;2022-10-17T08:12:01;15.90;;;3.30;;
41897;SDS011;27576;53.366;-1.498;2022-10-17T08:14:27;17.67;;;3.20;;
41897;SDS011;27576;53.366;-1.498;2022-10-17T08:16:53;12.35;;;2.55;;
41897;SDS011;27576;53.366;-1.498;2022-10-17T08:19:18;18.88;;;3.30;;
41897;SDS011;27576;53.366;-1.498;2022-10-17T08:21:44;17.85;;;3.47;;
41897;SDS011;27576;53.366;-1.498;2022-10-17T08:24:10;15.05;;;2.60;;
41897;SDS011;27576;53.366;-1.498;2022-10-17T08:26:36;11.07;;;2.67;;
41897;SDS011;27576;53.366;-1.498;2022-10-17T08:29:02;18.20;;;3.10;;
41897;SDS011;27576;53.366;-1.498;2022-10-17T08:31:27;17.23;;;3.35;;
41897;SDS011;27576;53.366;-1.498;2022-10-17T08:33:53;13.82;;;2.83;;
41897;SDS011;27576;53.366;-1.498;2022-10-17T08:36:19;15.18;;;2.92;;
41897;SDS011;27576;53.366;-1.498;2022-10-17T08:38:45;17.10;;;2.80;;
41897;SDS011;27576;53.366;-1.498;2022-10-17T08:46:47;14.43;;;2.70;;
41897;SDS011;27576;53.366;-1.498;2022-10-17T08:49:31;12.65;;;2.88;;
41897;SDS011;27576;53.366;-1.498;2022-10-17T08:52:01;12.23;;;2.63;;
41897;SDS011;27576;53.366;-1.498;2022-10-17T08:57:02;14.80;;;2.97;;
41897;SDS011;27576;53.366;-1.498;2022-10-17T08:59:29;11.18;;;2.13;;
41897;SDS011;27576;53.366;-1.498;2022-10-17T09:02:26;18.55;;;3.15;;
41897;SDS011;27576;53.366;-1.498;2022-10-17T09:05:02;12.00;;;2.70;;
41897;SDS011;27576;53.366;-1.498;2022-10-17T09:07:56;14.45;;;2.88;;
41897;SDS011;27576;53.366;-1.498;2022-10-17T09:16:09;15.85;;;3.08;;
41897;SDS011;27576;53.366;-1.498;2022-10-17T09:19:22;10.50;;;2.70;;
41897;SDS011;27576;53.366;-1.498;2022-10-17T09:21:44;15.35;;;3.58;;
41897;SDS011;27576;53.366;-1.498;2022-10-17T09:24:23;13.55;;;2.75;;
41897;SDS011;27576;53.366;-1.498;2022-10-17T09:26:57;11.90;;;2.35;;
41897;SDS011;27576;53.366;-1.498;2022-10-17T09:29:24;22.30;;;3.00;;
41897;SDS011;27576;53.366;-1.498;2022-10-17T09:31:53;17.67;;;3.28;;
41897;SDS011;27576;53.366;-1.498;2022-10-17T09:34:39;10.15;;;2.55;;
41897;SDS011;27576;53.366;-1.498;2022-10-17T09:37:05;21.50;;;3.13;;
41897;SDS011;27576;53.366;-1.498;2022-10-17T09:39:37;13.02;;;3.00;;
41897;SDS011;27576;53.366;-1.498;2022-10-17T09:42:02;14.55;;;3.08;;
41897;SDS011;27576;53.366;-1.498;2022-10-17T09:44:32;11.48;;;2.70;;
41897;SDS011;27576;53.366;-1.498;2022-10-17T09:49:59;19.00;;;3.15;;
41897;SDS011;27576;53.366;-1.498;2022-10-17T09:54:58;13.43;;;3.10;;
41897;SDS011;27576;53.366;-1.498;2022-10-17T09:57:27;16.52;;;2.67;;
41897;SDS011;27576;53.366;-1.498;2022-10-17T09:59:57;12.80;;;2.75;;
41897;SDS011;27576;53.366;-1.498;2022-10-17T10:02:27;10.77;;;2.80;;
41897;SDS011;27576;53.366;-1.498;2022-10-17T10:07:43;11.18;;;2.75;;
41897;SDS011;27576;53.366;-1.498;2022-10-17T10:10:26;9.95;;;2.25;;
41897;SDS011;27576;53.366;-1.498;2022-10-17T10:13:06;20.73;;;3.78;;
41897;SDS011;27576;53.366;-1.498;2022-10-17T10:15:43;11.48;;;2.75;;
41897;SDS011;27576;53.366;-1.498;2022-10-17T10:23:30;15.45;;;2.65;;
41897;SDS011;27576;53.366;-1.498;2022-10-17T10:25:56;15.05;;;2.83;;
41897;SDS011;27576;53.366;-1.498;2022-10-17T10:28:24;10.50;;;2.33;;
41897;SDS011;27576;53.366;-1.498;2022-10-17T10:30:52;13.55;;;2.47;;
41897;SDS011;27576;53.366;-1.498;2022-10-17T10:33:20;11.70;;;2.63;;
41897;SDS011;27576;53.366;-1.498;2022-10-17T10:35:55;14.07;;;2.40;;
41897;SDS011;27576;53.366;-1.498;2022-10-17T10:38:30;10.05;;;2.00;;
41897;SDS011;27576;53.366;-1.498;2022-10-17T10:41:06;10.18;;;2.03;;
41897;SDS011;27576;53.366;-1.498;2022-10-17T10:46:16;12.25;;;2.40;;
41897;SDS011;27576;53.366;-1.498;2022-10-17T10:48:52;12.60;;;3.20;;
41897;SDS011;27576;53.366;-1.498;2022-10-17T10:51:23;10.45;;;2.25;;
41897;SDS011;27576;53.366;-1.498;2022-10-17T10:56:29;8.43;;;2.05;;
41897;SDS011;27576;53.366;-1.498;2022-10-17T11:06:47;10.65;;;2.55;;
41897;SDS011;27576;53.366;-1.498;2022-10-17T11:12:17;13.68;;;2.00;;
41897;SDS011;27576;53.366;-1.498;2022-10-17T11:14:48;7.70;;;2.08;;
41897;SDS011;27576;53.366;-1.498;2022-10-17T11:22:31;12.05;;;2.17;;
41897;SDS011;27576;53.366;-1.498;2022-10-17T11:25:05;6.70;;;2.10;;
41897;SDS011;27576;53.366;-1.498;2022-10-17T11:27:57;13.32;;;2.05;;
41897;SDS011;27576;53.366;-1.498;2022-10-17T11:30:23;7.85;;;1.77;;
41897;SDS011;27576;53.366;-1.498;2022-10-17T11:32:54;10.07;;;1.77;;
41897;SDS011;27576;53.366;-1.498;2022-10-17T11:40:37;16.63;;;3.22;;
41897;SDS011;27576;53.366;-1.498;2022-10-17T11:43:14;7.13;;;1.67;;
41897;SDS011;27576;53.366;-1.498;2022-10-17T11:45:45;10.18;;;2.22;;
41897;SDS011;27576;53.366;-1.498;2022-10-17T11:48:19;11.85;;;2.70;;
41897;SDS011;27576;53.366;-1.498;2022-10-17T11:51:10;8.63;;;1.80;;
41897;SDS011;27576;53.366;-1.498;2022-10-17T11:56:08;10.10;;;2.55;;
41897;SDS011;27576;53.366;-1.498;2022-10-17T11:58:40;10.45;;;1.90;;
41897;SDS011;27576;53.366;-1.498;2022-10-17T12:04:11;13.05;;;2.65;;
41897;SDS011;27576;53.366;-1.498;2022-10-17T12:11:56;10.98;;;2.70;;
41897;SDS011;27576;53.366;-1.498;2022-10-17T12:14:34;9.23;;;2.70;;
41897;SDS011;27576;53.366;-1.498;2022-10-17T12:17:02;10.98;;;2.72;;
41897;SDS011;27576;53.366;-1.498;2022-10-17T12:19:31;7.65;;;1.88;;
41897;SDS011;27576;53.366;-1.498;2022-10-17T12:24:33;7.63;;;2.47;;
41897;SDS011;27576;53.366;-1.498;2022-10-17T12:32:52;8.63;;;2.08;;
41897;SDS011;27576;53.366;-1.498;2022-10-17T12:35:48;6.55;;;1.52;;
41897;SDS011;27576;53.366;-1.498;2022-10-17T12:38:22;8.30;;;2.22;;
41897;SDS011;27576;53.366;-1.498;2022-10-17T12:40:50;8.70;;;1.50;;
41897;SDS011;27576;53.366;-1.498;2022-10-17T12:46:11;10.30;;;2.10;;
41897;SDS011;27576;53.366;-1.498;2022-10-17T12:56:35;8.15;;;2.00;;
41897;SDS011;27576;53.366;-1.498;2022-10-17T13:01:37;7.20;;;2.03;;
41897;SDS011;27576;53.366;-1.498;2022-10-17T13:04:08;10.60;;;2.58;;
41897;SDS011;27576;53.366;-1.498;2022-10-17T13:06:35;5.10;;;1.67;;
41897;SDS011;27576;53.366;-1.498;2022-10-17T13:09:08;8.43;;;1.90;;
41897;SDS011;27576;53.366;-1.498;2022-10-17T13:11:59;5.70;;;1.67;;
41897;SDS011;27576;53.366;-1.498;2022-10-17T13:14:27;6.45;;;1.60;;
41897;SDS011;27576;53.366;-1.498;2022-10-17T13:16:56;8.18;;;1.92;;
41897;SDS011;27576;53.366;-1.498;2022-10-17T13:19:23;5.07;;;1.83;;
41897;SDS011;27576;53.366;-1.498;2022-10-17T13:22:03;8.27;;;1.75;;
41897;SDS011;27576;53.366;-1.498;2022-10-17T13:24:36;8.20;;;2.10;;
41897;SDS011;27576;53.366;-1.498;2022-10-17T13:27:04;8.10;;;2.22;;
41897;SDS011;27576;53.366;-1.498;2022-10-17T13:29:31;9.27;;;2.15;;
41897;SDS011;27576;53.366;-1.498;2022-10-17T13:32:03;9.02;;;2.78;;
41897;SDS011;27576;53.366;-1.498;2022-10-17T13:34:30;6.78;;;1.50;;
41897;SDS011;27576;53.366;-1.498;2022-10-17T13:37:03;7.72;;;2.03;;
41897;SDS011;27576;53.366;-1.498;2022-10-17T13:39:38;9.13;;;2.30;;
41897;SDS011;27576;53.366;-1.498;2022-10-17T13:42:05;8.00;;;2.00;;
41897;SDS011;27576;53.366;-1.498;2022-10-17T13:44:41;9.55;;;2.28;;
41897;SDS011;27576;53.366;-1.498;2022-10-17T13:47:18;9.20;;;2.17;;
41897;SDS011;27576;53.366;-1.498;2022-10-17T13:49:45;6.03;;;1.77;;
41897;SDS011;27576;53.366;-1.498;2022-10-17T13:52:16;12.60;;;2.08;;
41897;SDS011;27576;53.366;-1.498;2022-10-17T13:54:45;8.75;;;2.33;;
41897;SDS011;27576;53.366;-1.498;2022-10-17T13:57:28;4.75;;;1.55;;
41897;SDS011;27576;53.366;-1.498;2022-10-17T14:00:02;10.75;;;2.72;;
41897;SDS011;27576;53.366;-1.498;2022-10-17T14:02:31;13.10;;;1.95;;
41897;SDS011;27576;53.366;-1.498;2022-10-17T14:05:02;8.52;;;2.00;;
41897;SDS011;27576;53.366;-1.498;2022-10-17T14:07:54;5.80;;;1.77;;
41897;SDS011;27576;53.366;-1.498;2022-10-17T14:12:52;6.35;;;1.85;;
41897;SDS011;27576;53.366;-1.498;2022-10-17T14:15:20;5.47;;;1.90;;
41897;SDS011;27576;53.366;-1.498;2022-10-17T14:18:02;3.22;;;1.42;;
41897;SDS011;27576;53.366;-1.498;2022-10-17T14:20:29;6.22;;;1.80;;
41897;SDS011;27576;53.366;-1.498;2022-10-17T14:22:56;10.40;;;1.98;;
41897;SDS011;27576;53.366;-1.498;2022-10-17T14:25:33;8.55;;;2.03;;
41897;SDS011;27576;53.366;-1.498;2022-10-17T14:30:31;4.53;;;1.67;;
41897;SDS011;27576;53.366;-1.498;2022-10-17T14:33:00;8.15;;;2.10;;
41897;SDS011;27576;53.366;-1.498;2022-10-17T14:35:27;9.75;;;1.90;;
41897;SDS011;27576;53.366;-1.498;2022-10-17T14:37:57;8.80;;;1.95;;
41897;SDS011;27576;53.366;-1.498;2022-10-17T14:40:26;9.48;;;2.30;;
41897;SDS011;27576;53.366;-1.498;2022-10-17T14:42:54;5.50;;;1.73;;
41897;SDS011;27576;53.366;-1.498;2022-10-17T14:48:11;11.95;;;2.38;;
41897;SDS011;27576;53.366;-1.498;2022-10-17T14:50:40;6.63;;;1.60;;
41897;SDS011;27576;53.366;-1.498;2022-10-17T14:55:36;8.38;;;2.20;;
41897;SDS011;27576;53.366;-1.498;2022-10-17T14:58:21;6.28;;;2.00;;
41897;SDS011;27576;53.366;-1.498;2022-10-17T15:00:49;10.95;;;1.95;;
41897;SDS011;27576;53.366;-1.498;2022-10-17T15:03:14;6.78;;;1.70;;
41897;SDS011;27576;53.366;-1.498;2022-10-17T15:05:43;6.35;;;1.55;;
41897;SDS011;27576;53.366;-1.498;2022-10-17T15:08:10;8.75;;;2.05;;
41897;SDS011;27576;53.366;-1.498;2022-10-17T15:10:38;8.52;;;1.88;;
41897;SDS011;27576;53.366;-1.498;2022-10-17T15:13:05;4.25;;;1.70;;
41897;SDS011;27576;53.366;-1.498;2022-10-17T15:15:32;7.45;;;1.83;;
41897;SDS011;27576;53.366;-1.498;2022-10-17T15:17:58;6.97;;;1.80;;
41897;SDS011;27576;53.366;-1.498;2022-10-17T15:20:25;8.75;;;2.13;;
41897;SDS011;27576;53.366;-1.498;2022-10-17T15:22:55;8.98;;;2.42;;
41897;SDS011;27576;53.366;-1.498;2022-10-17T15:25:22;7.68;;;2.00;;
41897;SDS011;27576;53.366;-1.498;2022-10-17T15:27:49;4.32;;;1.25;;
41897;SDS011;27576;53.366;-1.498;2022-10-17T15:30:23;6.93;;;1.95;;
41897;SDS011;27576;53.366;-1.498;2022-10-17T15:32:49;5.88;;;1.75;;
41897;SDS011;27576;53.366;-1.498;2022-10-17T15:35:15;5.93;;;1.60;;
41897;SDS011;27576;53.366;-1.498;2022-10-17T15:37:41;6.65;;;1.55;;
41897;SDS011;27576;53.366;-1.498;2022-10-17T15:40:14;11.70;;;1.83;;
41897;SDS011;27576;53.366;-1.498;2022-10-17T15:42:47;11.90;;;2.45;;
41897;SDS011;27576;53.366;-1.498;2022-10-17T15:45:14;6.82;;;1.65;;
41897;SDS011;27576;53.366;-1.498;2022-10-17T15:47:42;8.90;;;1.98;;
41897;SDS011;27576;53.366;-1.498;2022-10-17T15:50:14;9.77;;;2.10;;
41897;SDS011;27576;53.366;-1.498;2022-10-17T15:52:40;8.85;;;1.70;;
41897;SDS011;27576;53.366;-1.498;2022-10-17T15:55:06;11.35;;;1.92;;
41897;SDS011;27576;53.366;-1.498;2022-10-17T15:57:35;13.38;;;2.20;;
41897;SDS011;27576;53.366;-1.498;2022-10-17T16:00:05;6.25;;;2.28;;
41897;SDS011;27576;53.366;-1.498;2022-10-17T16:02:37;5.72;;;1.58;;
41897;SDS011;27576;53.366;-1.498;2022-10-17T16:05:05;8.30;;;1.80;;
41897;SDS011;27576;53.366;-1.498;2022-10-17T16:07:37;5.43;;;1.40;;
41897;SDS011;27576;53.366;-1.498;2022-10-17T16:10:02;6.70;;;1.80;;
41897;SDS011;27576;53.366;-1.498;2022-10-17T16:12:28;5.47;;;1.77;;
41897;SDS011;27576;53.366;-1.498;2022-10-17T16:14:55;10.07;;;1.90;;
41897;SDS011;27576;53.366;-1.498;2022-10-17T16:17:21;7.93;;;1.80;;
41897;SDS011;27576;53.366;-1.498;2022-10-17T16:19:46;7.18;;;2.20;;
41897;SDS011;27576;53.366;-1.498;2022-10-17T16:22:16;9.45;;;2.03;;
41897;SDS011;27576;53.366;-1.498;2022-10-17T16:24:45;9.40;;;2.13;;
41897;SDS011;27576;53.366;-1.498;2022-10-17T16:27:10;5.18;;;1.73;;
41897;SDS011;27576;53.366;-1.498;2022-10-17T16:29:35;8.05;;;2.33;;
41897;SDS011;27576;53.366;-1.498;2022-10-17T16:32:01;7.72;;;1.80;;
41897;SDS011;27576;53.366;-1.498;2022-10-17T16:34:26;10.80;;;2.00;;
41897;SDS011;27576;53.366;-1.498;2022-10-17T16:36:51;16.90;;;2.63;;
41897;SDS011;27576;53.366;-1.498;2022-10-17T16:39:17;8.60;;;2.72;;
41897;SDS011;27576;53.366;-1.498;2022-10-17T16:41:42;7.22;;;2.28;;
41897;SDS011;27576;53.366;-1.498;2022-10-17T16:44:09;11.02;;;2.60;;